Time;durP1;ratioP1;P1;durP2;ratioP2;P2;SDS_P1;SDS_P2;PMS_P1;PMS_P2;Temp;Humidity;BMP_temperature;BMP_pressure;BME280_temperature;BME280_humidity;BME280_pressure;Samples;Min_cycle;Max_cycle;Signal;HPM_P1;HPM_P2
2020/12/04 00:01:05;;;;;;;1.33;0.60;;;;;;;18.26;38.50;98083.06;5184264;28;20034;-27
2020/12/04 00:03:36;;;;;;;1.33;0.60;;;;;;;18.26;38.73;98079.56;5176482;28;20085;-27
2020/12/04 00:06:08;;;;;;;1.27;0.60;;;;;;;18.27;38.68;98067.94;5187676;28;20022;-27
2020/12/04 00:08:39;;;;;;;1.23;0.67;;;;;;;18.25;38.53;98068.19;5169411;28;20031;-27
2020/12/04 00:11:10;;;;;;;1.13;0.50;;;;;;;18.24;38.65;98077.19;5156384;28;20026;-27
2020/12/04 00:13:42;;;;;;;1.00;0.60;;;;;;;18.24;38.72;98061.28;5191340;28;20030;-27
2020/12/04 00:16:13;;;;;;;1.43;0.73;;;;;;;18.22;38.70;98058.91;5186888;28;20020;-27
2020/12/04 00:18:44;;;;;;;1.97;0.60;;;;;;;18.22;38.73;98044.81;5170545;28;20030;-26
2020/12/04 00:21:16;;;;;;;2.83;0.60;;;;;;;18.21;38.46;98046.69;5182540;28;20040;-27
2020/12/04 00:23:47;;;;;;;1.00;0.57;;;;;;;18.22;39.07;98040.34;5153194;28;20029;-27
2020/12/04 00:26:18;;;;;;;1.23;0.70;;;;;;;18.22;38.41;98036.88;5168140;28;20030;-26
2020/12/04 00:28:50;;;;;;;1.30;0.40;;;;;;;18.22;38.43;98027.09;5145264;28;20034;-27
2020/12/04 00:31:21;;;;;;;1.27;0.60;;;;;;;18.21;38.64;98025.47;5185051;28;20026;-26
2020/12/04 00:33:52;;;;;;;1.40;0.70;;;;;;;18.18;38.64;98020.69;5173357;28;20476;-27
2020/12/04 00:36:28;;;;;;;2.40;0.60;;;;;;;18.21;38.50;98024.69;5167443;28;20034;-26
2020/12/04 00:38:59;;;;;;;1.23;0.57;;;;;;;18.19;38.69;98006.38;5191091;28;20100;-24
2020/12/04 00:41:30;;;;;;;1.37;0.67;;;;;;;18.20;38.69;98004.53;5184040;28;20029;-24
2020/12/04 00:44:02;;;;;;;1.13;0.70;;;;;;;18.20;38.63;98002.69;5200163;28;20026;-24
2020/12/04 00:46:33;;;;;;;1.20;0.60;;;;;;;18.20;38.50;98000.03;5199999;28;20014;-25
2020/12/04 00:49:04;;;;;;;0.83;0.43;;;;;;;18.20;38.74;97986.78;5194981;28;20067;-25
2020/12/04 00:51:36;;;;;;;1.23;0.63;;;;;;;18.19;38.75;97982.53;5205439;28;20034;-25
2020/12/04 00:54:07;;;;;;;1.13;0.63;;;;;;;18.18;38.68;97973.00;5178603;28;20398;-25
2020/12/04 00:56:39;;;;;;;1.67;0.80;;;;;;;18.19;38.81;97981.75;5182930;28;20021;-30
2020/12/04 00:59:10;;;;;;;0.97;0.57;;;;;;;18.19;38.77;97974.59;5200713;28;20505;-26
2020/12/04 01:01:41;;;;;;;1.03;0.60;;;;;;;18.18;38.58;97966.88;5173306;28;20213;-26
2020/12/04 01:04:13;;;;;;;1.47;0.80;;;;;;;18.17;38.56;97960.78;5194968;28;20068;-26
2020/12/04 01:06:44;;;;;;;1.03;0.50;;;;;;;18.17;38.63;97957.34;5192517;28;20018;-25
2020/12/04 01:09:15;;;;;;;1.13;0.60;;;;;;;18.18;38.74;97949.16;5189424;28;20034;-26
2020/12/04 01:11:47;;;;;;;1.48;0.60;;;;;;;18.15;38.54;97957.59;5173635;28;20030;-26
2020/12/04 01:14:18;;;;;;;0.90;0.60;;;;;;;18.16;38.49;97940.63;5207150;28;20060;-26
2020/12/04 01:16:49;;;;;;;1.37;0.57;;;;;;;18.17;38.77;97936.94;5209862;28;20474;-26
2020/12/04 01:19:21;;;;;;;0.90;0.50;;;;;;;18.18;38.49;97929.78;5190996;28;20036;-27
2020/12/04 01:21:52;;;;;;;1.10;0.60;;;;;;;18.18;38.68;97930.59;5208153;28;20026;-26
2020/12/04 01:24:24;;;;;;;1.03;0.67;;;;;;;18.17;38.81;97923.69;5160676;28;20036;-27
2020/12/04 01:26:55;;;;;;;1.10;0.60;;;;;;;18.17;38.50;97917.59;5195637;28;20018;-26
2020/12/04 01:29:26;;;;;;;1.30;0.60;;;;;;;18.17;38.61;97917.59;5170879;28;20092;-26
2020/12/04 01:31:58;;;;;;;0.97;0.50;;;;;;;18.13;38.66;97911.19;5198166;28;20034;-26
2020/12/04 01:34:29;;;;;;;1.00;0.50;;;;;;;18.13;38.60;97916.50;5189432;28;20022;-26
2020/12/04 01:37:00;;;;;;;1.10;0.50;;;;;;;18.15;38.51;97911.75;5211076;28;20018;-26
2020/12/04 01:39:32;;;;;;;1.33;0.50;;;;;;;18.16;38.63;97908.03;5205365;28;20026;-26
2020/12/04 01:42:03;;;;;;;0.90;0.50;;;;;;;18.16;38.50;97895.59;5190713;28;20024;-27
2020/12/04 01:44:34;;;;;;;1.43;0.60;;;;;;;18.15;38.50;97899.31;5186657;28;20018;-26
2020/12/04 01:47:06;;;;;;;1.00;0.57;;;;;;;18.14;39.31;97884.44;5190174;28;20032;-26
2020/12/04 01:49:37;;;;;;;0.90;0.50;;;;;;;18.15;38.62;97887.91;5187658;28;20034;-25
2020/12/04 01:52:09;;;;;;;2.10;0.80;;;;;;;18.12;38.48;97891.84;5175245;28;20051;-26
2020/12/04 01:54:40;;;;;;;1.30;0.60;;;;;;;18.12;38.53;97881.25;5182994;28;20030;-26
2020/12/04 01:57:11;;;;;;;1.20;0.50;;;;;;;18.13;38.41;97872.25;5172796;28;20034;-25
2020/12/04 01:59:43;;;;;;;1.10;0.50;;;;;;;18.12;38.52;97865.34;5164980;28;20493;-25
2020/12/04 02:02:22;;;;;;;0.73;0.37;;;;;;;18.16;38.53;97863.78;5206795;28;20026;-25
2020/12/04 02:04:53;;;;;;;1.00;0.57;;;;;;;18.12;38.60;97861.91;5195208;28;20556;-26
2020/12/04 02:07:28;;;;;;;1.63;0.60;;;;;;;18.12;38.41;97846.81;5193165;28;20021;-25
2020/12/04 02:10:11;;;;;;;1.20;0.50;;;;;;;18.15;38.52;97845.50;5180395;28;20030;-25
2020/12/04 02:12:43;;;;;;;;;;;;;;;18.33;38.26;97837.16;5179624;28;20057;-26
2020/12/04 02:15:14;;;;;;;1.00;0.53;;;;;;;18.14;38.59;97831.44;5171881;28;19996;-26
2020/12/04 02:17:45;;;;;;;6.20;0.70;;;;;;;18.12;38.81;97825.63;5179643;28;20028;-27
2020/12/04 02:20:17;;;;;;;1.50;0.80;;;;;;;18.12;38.53;97820.31;5185135;28;20033;-26
2020/12/04 02:22:48;;;;;;;1.00;0.57;;;;;;;18.12;38.34;97820.31;5195232;28;20018;-26
2020/12/04 02:25:19;;;;;;;1.53;0.60;;;;;;;18.12;38.45;97807.06;5209867;28;20092;-26
2020/12/04 02:27:51;;;;;;;1.17;0.30;;;;;;;18.12;38.67;97804.41;5182533;28;20022;-27
2020/12/04 02:30:28;;;;;;;1.03;0.50;;;;;;;18.05;38.70;97795.88;5181074;28;20027;-26
2020/12/04 02:33:00;;;;;;;1.08;0.50;;;;;;;18.12;38.58;97800.97;5188039;28;20397;-27
2020/12/04 02:35:31;;;;;;;1.30;0.50;;;;;;;18.12;38.50;97796.47;5190730;28;20042;-26
2020/12/04 02:38:02;;;;;;;1.87;0.60;;;;;;;18.12;38.58;97782.44;5196236;28;20025;-25
2020/12/04 02:40:34;;;;;;;0.93;0.53;;;;;;;18.12;38.65;97788.53;5216143;28;20023;-27
2020/12/04 02:43:05;;;;;;;0.60;0.40;;;;;;;18.12;38.77;97779.78;5161600;28;20030;-26
2020/12/04 02:45:37;;;;;;;1.20;0.60;;;;;;;18.12;38.72;97769.97;5185070;28;20714;-26
2020/12/04 02:48:08;;;;;;;1.57;0.60;;;;;;;18.10;38.40;97769.41;5212106;28;20080;-26
2020/12/04 02:50:40;;;;;;;1.20;0.53;;;;;;;18.11;38.91;97760.44;5198718;28;20026;-26
2020/12/04 02:53:11;;;;;;;1.80;0.73;;;;;;;18.09;38.50;97767.81;5180986;28;20037;-26
2020/12/04 02:55:42;;;;;;;1.33;0.40;;;;;;;18.10;38.69;97758.81;5203665;28;20080;-26
2020/12/04 02:58:14;;;;;;;1.53;0.70;;;;;;;18.10;38.65;97750.88;5188834;28;20026;-26
2020/12/04 03:00:45;;;;;;;1.27;0.50;;;;;;;18.09;38.53;97735.25;5187491;28;20036;-26
2020/12/04 03:03:16;;;;;;;0.87;0.43;;;;;;;18.11;38.73;97751.69;5208613;28;20022;-26
2020/12/04 03:05:48;;;;;;;0.63;0.33;;;;;;;18.11;38.59;97749.84;5214259;28;20044;-27
2020/12/04 03:08:19;;;;;;;1.90;0.40;;;;;;;18.12;38.55;97751.44;5181340;28;20026;-26
2020/12/04 03:10:51;;;;;;;2.67;0.70;;;;;;;18.12;38.59;97751.44;5211785;28;20651;-26
2020/12/04 03:13:22;;;;;;;1.23;0.50;;;;;;;18.13;38.67;97746.94;5191883;28;20037;-27
2020/12/04 03:15:54;;;;;;;1.10;0.37;;;;;;;18.13;38.65;97746.94;5210402;28;20022;-26
2020/12/04 03:18:25;;;;;;;1.20;0.40;;;;;;;18.14;38.60;97748.50;5188842;28;20087;-26
2020/12/04 03:20:56;;;;;;;2.30;0.70;;;;;;;18.14;38.65;97745.88;5211969;28;20042;-26
2020/12/04 03:23:28;;;;;;;1.57;0.50;;;;;;;18.14;38.44;97741.34;5182641;28;20249;-26
2020/12/04 03:25:59;;;;;;;0.90;0.50;;;;;;;18.14;38.70;97741.34;5207799;28;20402;-27
2020/12/04 03:28:30;;;;;;;1.03;0.40;;;;;;;18.15;38.42;97736.88;5190192;28;20108;-27
2020/12/04 03:31:02;;;;;;;0.80;0.40;;;;;;;18.12;38.52;97732.88;5204988;28;20026;-27
2020/12/04 03:33:33;;;;;;;3.07;0.63;;;;;;;18.13;38.44;97736.31;5192304;28;20053;-24
2020/12/04 03:36:05;;;;;;;1.60;0.60;;;;;;;18.12;38.51;97732.88;5189194;28;20025;-24
2020/12/04 03:38:36;;;;;;;0.63;0.33;;;;;;;18.14;38.54;97732.63;5207296;28;20030;-26
2020/12/04 03:41:07;;;;;;;1.47;0.50;;;;;;;18.14;38.57;97737.91;5181655;28;20030;-26
2020/12/04 03:43:42;;;;;;;0.80;0.33;;;;;;;18.12;38.52;97747.97;5189544;28;20136;-26
2020/12/04 03:46:13;;;;;;;0.90;0.47;;;;;;;18.10;38.68;97745.56;5208304;28;20028;-26
2020/12/04 03:48:44;;;;;;;0.80;0.33;;;;;;;18.12;38.49;97740.03;5179730;28;20034;-26
2020/12/04 03:51:16;;;;;;;1.00;0.47;;;;;;;18.11;38.73;97727.84;5207275;28;20406;-26
2020/12/04 03:53:47;;;;;;;0.90;0.40;;;;;;;18.14;38.61;97735.25;5158174;28;20109;-27
2020/12/04 03:56:18;;;;;;;0.93;0.40;;;;;;;18.12;38.45;97726.78;5184289;28;20028;-26
2020/12/04 03:58:50;;;;;;;0.80;0.50;;;;;;;18.11;38.49;97723.34;5207707;28;20027;-26
2020/12/04 04:01:21;;;;;;;1.70;0.37;;;;;;;18.11;38.59;97723.34;5173821;28;20218;-26
2020/12/04 04:03:53;;;;;;;0.90;0.50;;;;;;;18.11;38.51;97726.00;5195414;28;20021;-26
2020/12/04 04:06:24;;;;;;;0.90;0.50;;;;;;;18.12;38.60;97729.44;5188764;28;20789;-25
2020/12/04 04:08:56;;;;;;;0.63;0.30;;;;;;;18.11;38.60;97722.56;5213399;28;20041;-24
2020/12/04 04:11:27;;;;;;;1.07;0.50;;;;;;;18.10;38.80;97721.72;5191286;28;20029;-25
2020/12/04 04:13:58;;;;;;;0.87;0.50;;;;;;;18.10;38.52;97721.72;5209868;28;20025;-25
2020/12/04 04:16:30;;;;;;;1.20;0.40;;;;;;;18.11;38.60;97726.00;5170600;28;20129;-25
2020/12/04 04:19:01;;;;;;;0.70;0.30;;;;;;;18.04;38.63;97706.06;5184082;28;20030;-25
2020/12/04 04:21:39;;;;;;;0.90;0.33;;;;;;;18.12;38.59;97724.94;5198203;28;20018;-26
2020/12/04 04:24:10;;;;;;;1.00;0.50;;;;;;;18.09;38.46;97720.13;5192519;28;20030;-25
2020/12/04 04:26:41;;;;;;;0.90;0.50;;;;;;;18.11;38.65;97723.34;5193989;28;20084;-26
2020/12/04 04:29:13;;;;;;;0.60;0.30;;;;;;;18.12;38.52;97724.94;5197763;28;20026;-25
2020/12/04 04:31:44;;;;;;;0.90;0.30;;;;;;;18.11;38.73;97718.06;5165986;28;20022;-25
2020/12/04 04:34:15;;;;;;;0.63;0.33;;;;;;;18.11;38.71;97726.00;5188542;28;20033;-26
2020/12/04 04:36:47;;;;;;;0.53;0.30;;;;;;;18.11;38.68;97714.59;5209963;28;20029;-25
2020/12/04 04:39:18;;;;;;;0.68;0.30;;;;;;;18.11;38.56;97718.06;5188979;28;20018;-25
2020/12/04 04:41:56;;;;;;;0.90;0.30;;;;;;;18.12;38.71;97732.88;5191360;28;20029;-25
2020/12/04 04:44:28;;;;;;;0.57;0.30;;;;;;;18.09;38.68;97724.66;5188023;28;20038;-25
2020/12/04 04:47:06;;;;;;;0.80;0.27;;;;;;;18.12;38.45;97724.94;5186106;28;20022;-25
2020/12/04 04:49:44;;;;;;;0.65;0.30;;;;;;;18.09;38.61;97719.34;5170430;28;20073;-25
2020/12/04 04:52:16;;;;;;;1.20;0.40;;;;;;;18.08;38.56;97728.34;5151874;28;20112;-25
2020/12/04 04:54:48;;;;;;;0.40;0.20;;;;;;;18.09;38.61;97725.44;5194697;28;20026;-25
2020/12/04 04:57:22;;;;;;;0.80;0.40;;;;;;;18.09;38.63;97728.09;5186002;28;20051;-25
2020/12/04 04:59:54;;;;;;;2.15;0.40;;;;;;;18.09;38.69;97730.75;5220817;23;20410;-29
2020/12/04 05:02:25;;;;;;;0.57;0.30;;;;;;;18.10;38.63;97726.22;5210203;28;20044;-30
2020/12/04 05:04:57;;;;;;;0.80;0.40;;;;;;;18.10;38.63;97724.38;5212242;28;20022;-29
2020/12/04 05:07:34;;;;;;;1.13;0.53;;;;;;;18.12;38.72;97718.84;5227479;28;20021;-29
2020/12/04 05:10:13;;;;;;;4.22;0.60;;;;;;;18.15;38.65;97727.09;5237912;28;20025;-29
2020/12/04 05:12:45;;;;;;;2.72;0.50;;;;;;;18.15;38.89;97726.28;5231430;28;20554;-30
2020/12/04 05:15:23;;;;;;;1.75;0.50;;;;;;;18.17;38.61;97724.97;5222444;28;20036;-29
2020/12/04 05:18:11;;;;;;;0.95;0.32;;;;;;;18.07;38.67;97708.19;5234926;28;20032;-30
2020/12/04 05:20:49;;;;;;;1.85;0.40;;;;;;;18.20;38.99;97721.81;5231085;28;20025;-30
2020/12/04 05:23:20;;;;;;;7.57;0.60;;;;;;;18.16;38.80;97726.03;5226039;28;20029;-29
2020/12/04 05:25:52;;;;;;;2.80;0.70;;;;;;;18.18;38.90;97737.19;5252140;28;20109;-29
2020/12/04 05:28:25;;;;;;;3.60;0.70;;;;;;;18.19;38.93;97733.47;5224230;28;20153;-29
2020/12/04 05:31:07;;;;;;;2.35;0.45;;;;;;;18.23;38.67;97739.06;5243543;28;20037;-29
2020/12/04 05:33:40;;;;;;;1.17;0.40;;;;;;;18.20;38.76;97742.22;5227006;28;20033;-29
2020/12/04 05:36:25;;;;;;;2.78;0.40;;;;;;;18.24;38.91;97748.59;5237655;28;20531;-30
2020/12/04 05:38:57;;;;;;;1.92;0.50;;;;;;;18.18;39.04;97739.81;5245408;28;20589;-29
2020/12/04 05:41:29;;;;;;;1.52;0.30;;;;;;;18.19;39.33;97733.47;5253009;28;20108;-27
2020/12/04 05:44:00;;;;;;;0.70;0.30;;;;;;;18.19;38.55;97741.41;5255203;28;20043;-27
2020/12/04 05:46:31;;;;;;;1.27;0.40;;;;;;;18.21;38.88;97746.44;5238283;28;20025;-27
2020/12/04 05:49:08;;;;;;;1.97;0.27;;;;;;;18.13;38.81;97720.44;5231429;28;20035;-27
2020/12/04 05:51:39;;;;;;;0.68;0.30;;;;;;;18.19;38.88;97736.13;5252135;28;20025;-28
2020/12/04 05:54:11;;;;;;;1.00;0.30;;;;;;;18.20;39.15;97739.56;5230938;28;20154;-27
2020/12/04 05:56:42;;;;;;;0.83;0.30;;;;;;;18.21;39.12;97749.09;5253685;28;20017;-28
2020/12/04 05:59:13;;;;;;;3.07;0.30;;;;;;;18.21;38.94;97746.44;5219747;28;20032;-27
2020/12/04 06:01:48;;;;;;;1.27;0.70;;;;;;;18.18;39.00;97747.78;5233885;28;20028;-28
2020/12/04 06:04:19;;;;;;;0.82;0.40;;;;;;;18.19;39.04;97754.66;5234114;28;20048;-28
2020/12/04 06:06:50;;;;;;;1.53;0.53;;;;;;;18.21;39.00;97762.34;5252923;28;20444;-28
2020/12/04 06:09:22;;;;;;;1.63;0.50;;;;;;;18.20;39.10;97758.91;5203191;28;20042;-27
2020/12/04 06:11:53;;;;;;;1.37;0.40;;;;;;;18.21;38.95;97760.50;5238365;28;20043;-28
2020/12/04 06:14:26;;;;;;;1.10;0.30;;;;;;;18.22;39.00;97769.22;5250029;28;20221;-27
2020/12/04 06:17:00;;;;;;;0.80;0.30;;;;;;;18.23;39.22;97774.28;5237944;28;20479;-28
2020/12/04 06:19:35;;;;;;;2.03;0.40;;;;;;;18.23;38.98;97782.25;5234798;28;20033;-28
2020/12/04 06:22:17;;;;;;;1.60;0.43;;;;;;;18.28;38.58;97791.28;5235808;28;20041;-27
2020/12/04 06:24:54;;;;;;;0.55;0.30;;;;;;;18.26;39.17;97783.59;5255744;28;20036;-28
2020/12/04 06:27:45;;;;;;;1.13;0.40;;;;;;;18.31;39.32;97788.13;5258704;28;20643;-28
2020/12/04 06:30:17;;;;;;;1.17;0.30;;;;;;;18.26;39.14;97801.31;5234907;28;20068;-27
2020/12/04 06:32:49;;;;;;;0.70;0.30;;;;;;;18.26;39.04;97803.97;5253336;28;20103;-27
2020/12/04 06:35:39;;;;;;;1.13;0.40;;;;;;;18.35;39.27;97811.22;5214012;28;20021;-30
2020/12/04 06:38:38;;;;;;;0.95;0.30;;;;;;;18.36;39.15;97815.44;5232110;28;20040;-29
2020/12/04 06:41:22;;;;;;;0.70;0.40;;;;;;;18.33;39.35;97815.94;5251971;28;20104;-30
2020/12/04 06:44:01;;;;;;;1.17;0.40;;;;;;;18.30;39.27;97824.44;5249604;28;20482;-29
2020/12/04 06:46:40;;;;;;;0.98;0.47;;;;;;;18.31;39.24;97828.69;5234056;28;20033;-27
2020/12/04 06:49:57;;;;;;;1.38;0.40;;;;;;;18.32;39.30;97824.16;5252175;28;20031;-27
2020/12/04 06:52:16;;;;;;;0.73;0.30;;;;;;;18.32;39.48;97843.50;5197125;28;20125;-27
2020/12/04 06:54:48;;;;;;;0.98;0.25;;;;;;;18.32;39.30;97842.72;5233571;28;20051;-28
2020/12/04 06:57:21;;;;;;;0.68;0.20;;;;;;;18.32;39.37;97830.25;5247553;28;20475;-28
2020/12/04 06:59:52;;;;;;;1.00;0.30;;;;;;;18.32;39.56;97848.81;5246695;28;20063;-28
2020/12/04 07:02:25;;;;;;;1.57;0.30;;;;;;;18.34;39.38;97856.53;5234700;28;20029;-28
2020/12/04 07:04:56;;;;;;;0.50;0.20;;;;;;;18.33;39.32;97853.06;5233082;28;20013;-28
2020/12/04 07:07:28;;;;;;;0.73;0.35;;;;;;;18.33;39.37;97865.50;5226123;28;20281;-28
2020/12/04 07:10:01;;;;;;;1.00;0.20;;;;;;;18.34;39.45;97869.78;5233785;28;20493;-25
2020/12/04 07:12:33;;;;;;;;;;;;;;;18.53;39.08;97865.69;5240398;28;20041;-25
2020/12/04 07:15:04;;;;;;;0.77;0.30;;;;;;;18.34;39.68;97881.19;5253342;28;19917;-27
2020/12/04 07:17:36;;;;;;;0.90;0.30;;;;;;;18.36;39.11;97880.91;5194893;28;20025;-29
2020/12/04 07:20:07;;;;;;;1.00;0.40;;;;;;;18.36;39.28;97886.22;5231833;28;20028;-30
2020/12/04 07:22:38;;;;;;;0.87;0.30;;;;;;;18.36;39.34;97894.16;5214176;28;20385;-30
2020/12/04 07:25:10;;;;;;;0.63;0.20;;;;;;;18.36;39.31;97899.47;5214273;28;20031;-27
2020/12/04 07:27:41;;;;;;;1.10;0.30;;;;;;;18.35;39.41;97898.69;5251207;28;20482;-27
2020/12/04 07:30:14;;;;;;;0.80;0.40;;;;;;;18.36;39.19;97907.41;5216280;28;20037;-27
2020/12/04 07:32:52;;;;;;;0.85;0.40;;;;;;;18.37;39.33;97916.97;5243170;28;20021;-28
2020/12/04 07:35:23;;;;;;;0.73;0.40;;;;;;;18.34;39.60;97918.28;5214061;28;20086;-28
2020/12/04 07:37:55;;;;;;;0.67;0.30;;;;;;;18.38;39.25;97945.09;5225073;28;20021;-28
2020/12/04 07:40:26;;;;;;;0.97;0.50;;;;;;;18.36;39.41;97961.22;5209228;28;20033;-28
2020/12/04 07:42:57;;;;;;;0.47;0.30;;;;;;;18.37;39.38;97964.66;5248381;28;20531;-28
2020/12/04 07:45:29;;;;;;;0.70;0.30;;;;;;;18.37;39.27;97976.09;5243615;28;20012;-28
2020/12/04 07:48:06;;;;;;;0.53;0.20;;;;;;;18.31;39.49;97953.25;5251111;28;20024;-27
2020/12/04 07:50:37;;;;;;;0.80;0.20;;;;;;;18.36;39.34;97986.94;5241360;28;20025;-28
2020/12/04 07:53:08;;;;;;;1.23;0.50;;;;;;;18.35;39.22;97988.00;5208459;28;20497;-29
2020/12/04 07:55:40;;;;;;;1.17;0.22;;;;;;;18.34;39.23;97987.19;5228546;28;20025;-27
2020/12/04 07:58:14;;;;;;;1.33;0.40;;;;;;;18.36;39.20;97997.53;5196355;28;20043;-27
2020/12/04 08:00:46;;;;;;;0.80;0.40;;;;;;;18.34;39.35;98016.34;5218515;28;20032;-28
2020/12/04 08:03:17;;;;;;;0.53;0.20;;;;;;;18.34;39.03;98028.81;5233263;28;20648;-29
2020/12/04 08:05:49;;;;;;;1.10;0.30;;;;;;;18.34;38.89;98019.00;5218120;28;20028;-27
2020/12/04 08:08:20;;;;;;;0.60;0.27;;;;;;;18.34;38.90;98016.34;5248766;28;20051;-28
2020/12/04 08:11:06;;;;;;;0.60;0.30;;;;;;;18.39;38.81;98024.34;5217704;28;20063;-28
2020/12/04 08:13:38;;;;;;;0.93;0.43;;;;;;;18.32;39.10;98015.00;5219544;28;20394;-30
2020/12/04 08:16:10;;;;;;;0.60;0.30;;;;;;;18.34;39.09;98026.16;5248491;28;20099;-36
2020/12/04 08:18:46;;;;;;;0.50;0.20;;;;;;;18.36;38.85;98026.69;5251221;28;20040;-28
2020/12/04 08:21:17;;;;;;;0.65;0.30;;;;;;;18.34;38.97;98034.91;5214867;28;20100;-27
2020/12/04 08:23:55;;;;;;;2.90;0.50;;;;;;;18.38;38.97;98028.06;5203549;28;20025;-28
2020/12/04 08:26:26;;;;;;;0.50;0.20;;;;;;;18.34;39.01;98039.41;5211440;28;20034;-28
2020/12/04 08:28:57;;;;;;;0.30;0.20;;;;;;;18.34;39.19;98021.66;5252157;28;20041;-28
2020/12/04 08:31:29;;;;;;;1.50;0.43;;;;;;;18.35;39.00;98025.91;5227725;28;20693;-27
2020/12/04 08:34:00;;;;;;;0.77;0.30;;;;;;;18.37;39.09;98028.28;5228139;28;20035;-27
2020/12/04 08:36:31;;;;;;;1.67;0.40;;;;;;;18.35;38.93;98028.53;5234965;28;20654;-27
2020/12/04 08:39:03;;;;;;;1.23;0.47;;;;;;;18.36;39.02;98024.84;5233081;28;20367;-27
2020/12/04 08:41:35;;;;;;;0.68;0.30;;;;;;;18.37;39.00;98031.75;5222457;28;20032;-27
2020/12/04 08:44:06;;;;;;;0.50;0.30;;;;;;;18.38;38.91;98046.63;5245549;28;20021;-27
2020/12/04 08:46:38;;;;;;;1.47;0.30;;;;;;;18.39;39.08;98040.25;5252791;28;20028;-27
2020/12/04 08:49:09;;;;;;;1.30;0.27;;;;;;;18.39;39.31;98052.72;5241452;28;20028;-27
2020/12/04 08:51:47;;;;;;;0.47;0.20;;;;;;;18.43;38.99;98059.09;5232713;28;20083;-28
2020/12/04 08:54:18;;;;;;;1.00;0.40;;;;;;;18.37;39.14;98065.41;5231044;28;20032;-28
2020/12/04 08:56:55;;;;;;;0.93;0.47;;;;;;;18.39;39.01;98068.63;5239486;28;20021;-28
2020/12/04 08:59:26;;;;;;;0.93;0.35;;;;;;;18.40;39.13;98078.16;5227132;28;20044;-28
2020/12/04 09:01:58;;;;;;;1.03;0.30;;;;;;;18.40;38.97;98073.66;5253455;28;20091;-28
2020/12/04 09:04:29;;;;;;;0.93;0.30;;;;;;;18.41;39.52;98069.97;5221600;28;20029;-28
2020/12/04 09:07:00;;;;;;;0.47;0.20;;;;;;;18.42;39.22;98071.56;5233948;28;20659;-28
2020/12/04 09:09:32;;;;;;;0.90;0.30;;;;;;;18.42;39.29;98078.72;5246876;28;20028;-28
2020/12/04 09:12:03;;;;;;;0.70;0.30;;;;;;;18.42;39.04;98084.03;5243081;28;20083;-27
2020/12/04 09:14:34;;;;;;;1.23;0.30;;;;;;;18.41;39.17;98101.78;5236382;28;20025;-28
2020/12/04 09:17:06;;;;;;;0.90;0.27;;;;;;;18.42;39.12;98106.03;5250725;28;20028;-27
2020/12/04 09:19:37;;;;;;;0.33;0.10;;;;;;;18.41;38.92;98108.91;5249935;28;20036;-28
2020/12/04 09:22:09;;;;;;;0.87;0.20;;;;;;;18.43;39.18;98114.78;5228013;28;20033;-28
2020/12/04 09:24:40;;;;;;;0.70;0.20;;;;;;;18.42;39.23;98129.09;5241013;28;20497;-27
2020/12/04 09:27:12;;;;;;;0.77;0.30;;;;;;;18.43;39.18;98138.63;5241066;28;20132;-27
2020/12/04 09:29:43;;;;;;;0.60;0.20;;;;;;;18.43;38.91;98147.38;5224159;28;20029;-29
2020/12/04 09:32:15;;;;;;;0.83;0.30;;;;;;;18.43;39.14;98150.03;5236079;28;20067;-29
2020/12/04 09:34:47;;;;;;;0.63;0.30;;;;;;;18.41;39.26;98146.03;5235557;28;20504;-29
2020/12/04 09:37:29;;;;;;;0.30;0.20;;;;;;;18.41;39.35;98148.66;5196853;28;20634;-29
2020/12/04 09:40:06;;;;;;;0.68;0.28;;;;;;;18.41;39.09;98151.31;5244418;28;20720;-29
2020/12/04 09:42:38;;;;;;;0.70;0.20;;;;;;;18.40;39.38;98157.69;5238936;28;20028;-29
2020/12/04 09:45:10;;;;;;;0.60;0.30;;;;;;;18.36;39.26;98154.72;5229097;28;20031;-29
2020/12/04 09:47:41;;;;;;;0.60;0.30;;;;;;;18.40;39.04;98158.47;5248583;28;20078;-29
2020/12/04 09:50:15;;;;;;;0.60;0.20;;;;;;;18.41;39.31;98157.44;5249205;28;20775;-29
2020/12/04 09:52:46;;;;;;;0.98;0.20;;;;;;;18.40;39.39;98165.63;5235189;28;20029;-28
2020/12/04 09:55:18;;;;;;;0.53;0.30;;;;;;;18.41;39.26;98173.34;5240426;28;20679;-28
2020/12/04 09:57:49;;;;;;;0.60;0.20;;;;;;;18.41;39.25;98167.22;5255099;28;20444;-28
2020/12/04 10:00:20;;;;;;;0.63;0.30;;;;;;;18.41;39.23;98167.22;5210785;28;20233;-28
2020/12/04 10:02:52;;;;;;;0.53;0.30;;;;;;;18.42;39.30;98180.25;5244685;28;20592;-28
2020/12/04 10:05:23;;;;;;;0.77;0.30;;;;;;;18.42;39.18;98185.56;5217140;28;20571;-28
2020/12/04 10:07:54;;;;;;;0.30;0.20;;;;;;;18.42;39.32;98192.72;5222464;28;20021;-28
2020/12/04 10:10:26;;;;;;;0.77;0.43;;;;;;;18.42;39.22;98185.56;5231979;28;20031;-29
2020/12/04 10:12:57;;;;;;;0.67;0.30;;;;;;;18.43;39.24;98191.66;5251387;28;20025;-29
2020/12/04 10:15:28;;;;;;;0.60;0.20;;;;;;;18.44;39.25;98183.44;5225121;28;20037;-29
2020/12/04 10:18:00;;;;;;;0.33;0.20;;;;;;;18.43;39.12;98181.84;5250466;28;20025;-29
2020/12/04 10:20:31;;;;;;;0.97;0.30;;;;;;;18.43;39.16;98181.84;5247363;28;20270;-29
2020/12/04 10:23:02;;;;;;;0.57;0.30;;;;;;;18.44;39.17;98180.00;5237413;28;20031;-29
2020/12/04 10:25:34;;;;;;;0.73;0.30;;;;;;;18.45;39.35;98190.38;5255708;28;20028;-29
2020/12/04 10:28:05;;;;;;;0.43;0.23;;;;;;;18.46;39.30;98189.31;5268733;28;20025;-29
2020/12/04 10:30:36;;;;;;;0.70;0.20;;;;;;;18.47;39.30;98188.25;5228600;28;20038;-29
2020/12/04 10:33:08;;;;;;;0.60;0.37;;;;;;;18.50;39.51;98197.59;5247641;28;20101;-29
2020/12/04 10:35:39;;;;;;;0.47;0.20;;;;;;;18.52;39.37;98184.06;5253862;28;20029;-29
2020/12/04 10:38:11;;;;;;;0.50;0.20;;;;;;;18.52;39.46;98184.06;5234445;28;20520;-28
2020/12/04 10:40:42;;;;;;;0.63;0.27;;;;;;;18.55;39.22;98183.59;5236809;28;20494;-27
2020/12/04 10:43:13;;;;;;;0.50;0.20;;;;;;;18.54;39.39;98190.75;5251865;28;20024;-27
2020/12/04 10:45:45;;;;;;;0.43;0.20;;;;;;;18.56;39.41;98193.13;5254674;28;20035;-27
2020/12/04 10:48:16;;;;;;;0.70;0.30;;;;;;;18.57;39.40;98186.81;5227818;28;20032;-28
2020/12/04 10:50:48;;;;;;;0.63;0.30;;;;;;;18.57;39.34;98178.84;5251042;28;20440;-27
2020/12/04 10:53:22;;;;;;;0.63;0.23;;;;;;;18.57;39.18;98198.19;5248823;28;20059;-28
2020/12/04 10:55:53;;;;;;;0.43;0.20;;;;;;;18.57;39.45;98187.59;5228952;28;20102;-27
2020/12/04 10:58:25;;;;;;;1.07;0.30;;;;;;;18.58;39.27;98199.81;5249022;28;20021;-27
2020/12/04 11:00:56;;;;;;;0.53;0.23;;;;;;;18.59;39.39;98200.59;5250046;23;20056;-69
2020/12/04 11:06:07;;;;;;;0.50;0.20;;;;;;;18.59;39.28;98208.56;5241893;28;20029;-70
2020/12/04 11:08:39;;;;;;;0.80;0.30;;;;;;;18.58;39.49;98213.06;5229956;28;20088;-70
2020/12/04 11:11:11;;;;;;;0.30;0.20;;;;;;;18.58;39.35;98205.09;5206373;28;20192;-71
2020/12/04 11:13:42;;;;;;;0.43;0.20;;;;;;;18.59;39.52;98205.91;5223718;28;20037;-71
2020/12/04 11:16:14;;;;;;;0.63;0.20;;;;;;;18.59;39.39;98208.56;5264741;23;20098;-35
2020/12/04 11:18:45;;;;;;;0.20;0.20;;;;;;;18.59;39.40;98214.66;5234961;28;20499;-31
2020/12/04 11:21:16;;;;;;;0.40;0.20;;;;;;;18.60;39.48;98205.69;5272736;28;20035;-32
2020/12/04 11:23:48;;;;;;;1.00;0.30;;;;;;;18.60;39.40;98218.94;5286273;28;20012;-31
2020/12/04 11:26:19;;;;;;;0.43;0.20;;;;;;;18.63;39.59;98220.28;5267250;28;20510;-31
2020/12/04 11:28:50;;;;;;;1.00;0.30;;;;;;;18.61;39.39;98215.22;5293321;28;20107;-31
2020/12/04 11:31:22;;;;;;;0.40;0.20;;;;;;;18.62;39.60;98218.66;5288913;28;20030;-31
2020/12/04 11:33:53;;;;;;;0.63;0.37;;;;;;;18.62;39.31;98213.38;5258340;28;20023;-31
2020/12/04 11:36:24;;;;;;;0.53;0.23;;;;;;;18.61;39.52;98215.22;5286358;28;20022;-34
2020/12/04 11:38:56;;;;;;;0.20;0.10;;;;;;;18.61;39.39;98219.72;5270275;28;20071;-33
2020/12/04 11:41:31;;;;;;;0.43;0.20;;;;;;;18.60;39.39;98223.41;5258023;28;20027;-30
2020/12/04 11:44:02;;;;;;;0.50;0.20;;;;;;;18.61;39.34;98233.78;5273941;28;20020;-30
2020/12/04 11:46:33;;;;;;;0.60;0.30;;;;;;;18.61;39.50;98228.47;5272872;28;20046;-29
2020/12/04 11:49:05;;;;;;;0.60;0.20;;;;;;;18.63;39.31;98233.53;5255507;28;20024;-31
2020/12/04 11:51:36;;;;;;;1.87;0.40;;;;;;;18.62;39.38;98226.63;5293296;28;20032;-31
2020/12/04 11:54:07;;;;;;;0.23;0.20;;;;;;;18.62;39.44;98235.38;5291922;28;20024;-35
2020/12/04 11:56:39;;;;;;;0.47;0.27;;;;;;;18.62;39.33;98232.72;5271967;28;20028;-31
2020/12/04 11:59:10;;;;;;;0.40;0.30;;;;;;;18.64;39.42;98224.53;5285487;28;20387;-33
2020/12/04 12:01:41;;;;;;;0.40;0.20;;;;;;;18.62;39.40;98232.72;5292479;28;20473;-31